sensor_id;sensor_type;location;lat;lon;timestamp;temperature;humidity
827;DHT22;395;48.132;11.608;2022-08-21T12:24:40;23.50;1.00
827;DHT22;395;48.132;11.608;2022-08-21T12:27:30;23.40;1.00
827;DHT22;395;48.132;11.608;2022-08-21T12:30:20;23.40;1.00
827;DHT22;395;48.132;11.608;2022-08-21T12:32:59;23.40;1.00
827;DHT22;395;48.132;11.608;2022-08-21T12:35:31;23.60;1.00
827;DHT22;395;48.132;11.608;2022-08-21T12:38:06;23.80;1.00
827;DHT22;395;48.132;11.608;2022-08-21T12:41:01;23.90;1.00
827;DHT22;395;48.132;11.608;2022-08-21T12:45:53;24.30;1.00
827;DHT22;395;48.132;11.608;2022-08-21T12:48:44;24.40;1.00
827;DHT22;395;48.132;11.608;2022-08-21T12:51:54;24.50;1.00
827;DHT22;395;48.132;11.608;2022-08-21T12:54:32;24.80;1.00
827;DHT22;395;48.132;11.608;2022-08-21T12:57:04;25.00;1.00
827;DHT22;395;48.132;11.608;2022-08-21T12:59:31;25.10;1.00
827;DHT22;395;48.132;11.608;2022-08-21T13:01:59;25.00;1.00
827;DHT22;395;48.132;11.608;2022-08-21T13:04:35;25.00;1.00
827;DHT22;395;48.132;11.608;2022-08-21T13:07:07;25.00;1.00
827;DHT22;395;48.132;11.608;2022-08-21T13:09:38;25.10;1.00
827;DHT22;395;48.132;11.608;2022-08-21T13:12:07;25.10;1.00
827;DHT22;395;48.132;11.608;2022-08-21T13:14:38;25.10;1.00
827;DHT22;395;48.132;11.608;2022-08-21T13:17:05;25.00;1.00
827;DHT22;395;48.132;11.608;2022-08-21T13:19:32;25.00;1.00
827;DHT22;395;48.132;11.608;2022-08-21T13:21:59;25.00;1.00
827;DHT22;395;48.132;11.608;2022-08-21T13:24:33;25.10;1.00
827;DHT22;395;48.132;11.608;2022-08-21T13:27:00;25.00;1.00
827;DHT22;395;48.132;11.608;2022-08-21T13:29:31;25.00;1.00
827;DHT22;395;48.132;11.608;2022-08-21T13:32:02;25.00;1.00
827;DHT22;395;48.132;11.608;2022-08-21T13:34:34;24.90;1.00
827;DHT22;395;48.132;11.608;2022-08-21T13:37:03;24.80;1.00
827;DHT22;395;48.132;11.608;2022-08-21T13:39:29;24.90;1.00
827;DHT22;395;48.132;11.608;2022-08-21T13:41:58;24.80;1.00
827;DHT22;395;48.132;11.608;2022-08-21T13:44:34;24.80;1.00
827;DHT22;395;48.132;11.608;2022-08-21T13:47:03;24.80;1.00
827;DHT22;395;48.132;11.608;2022-08-21T13:49:33;24.90;1.00
827;DHT22;395;48.132;11.608;2022-08-21T13:51:59;24.90;1.00
827;DHT22;395;48.132;11.608;2022-08-21T13:56:53;24.90;1.00
827;DHT22;395;48.132;11.608;2022-08-21T13:59:35;24.80;1.00
827;DHT22;395;48.132;11.608;2022-08-21T14:02:15;24.90;1.00
827;DHT22;395;48.132;11.608;2022-08-21T14:04:57;24.80;1.00
827;DHT22;395;48.132;11.608;2022-08-21T14:09:51;24.60;1.00
827;DHT22;395;48.132;11.608;2022-08-21T14:12:25;24.60;1.00
827;DHT22;395;48.132;11.608;2022-08-21T14:14:53;24.70;1.00
827;DHT22;395;48.132;11.608;2022-08-21T14:17:36;24.70;1.00
827;DHT22;395;48.132;11.608;2022-08-21T14:20:05;24.70;1.00
827;DHT22;395;48.132;11.608;2022-08-21T14:22:46;24.80;1.00
827;DHT22;395;48.132;11.608;2022-08-21T14:28:03;25.00;1.00
827;DHT22;395;48.132;11.608;2022-08-21T14:30:34;25.20;1.00
827;DHT22;395;48.132;11.608;2022-08-21T14:33:01;25.30;1.00
827;DHT22;395;48.132;11.608;2022-08-21T14:35:28;25.30;1.00
827;DHT22;395;48.132;11.608;2022-08-21T14:37:54;25.30;1.00
827;DHT22;395;48.132;11.608;2022-08-21T14:40:22;25.50;1.00
827;DHT22;395;48.132;11.608;2022-08-21T14:42:48;25.50;1.00
827;DHT22;395;48.132;11.608;2022-08-21T14:45:32;25.50;1.00
827;DHT22;395;48.132;11.608;2022-08-21T14:47:59;25.60;1.00
827;DHT22;395;48.132;11.608;2022-08-21T14:50:25;25.60;1.00
827;DHT22;395;48.132;11.608;2022-08-21T14:52:51;25.60;1.00
827;DHT22;395;48.132;11.608;2022-08-21T14:55:18;25.50;1.00
827;DHT22;395;48.132;11.608;2022-08-21T14:57:52;25.40;1.00
827;DHT22;395;48.132;11.608;2022-08-21T15:00:21;25.30;1.00
827;DHT22;395;48.132;11.608;2022-08-21T15:02:50;25.10;1.00
827;DHT22;395;48.132;11.608;2022-08-21T15:05:17;25.10;1.00
827;DHT22;395;48.132;11.608;2022-08-21T15:07:43;25.10;1.00
827;DHT22;395;48.132;11.608;2022-08-21T15:10:11;25.10;1.00
827;DHT22;395;48.132;11.608;2022-08-21T15:12:37;25.20;1.00
827;DHT22;395;48.132;11.608;2022-08-21T15:15:07;25.30;1.00
827;DHT22;395;48.132;11.608;2022-08-21T15:17:33;25.40;1.00
827;DHT22;395;48.132;11.608;2022-08-21T15:19:58;25.30;1.00
827;DHT22;395;48.132;11.608;2022-08-21T15:22:24;25.10;1.00
827;DHT22;395;48.132;11.608;2022-08-21T15:24:50;25.30;1.00
827;DHT22;395;48.132;11.608;2022-08-21T15:27:16;25.30;1.00
827;DHT22;395;48.132;11.608;2022-08-21T15:29:43;25.50;1.00
827;DHT22;395;48.132;11.608;2022-08-21T15:32:27;25.70;1.00
827;DHT22;395;48.132;11.608;2022-08-21T15:34:55;25.80;1.00
827;DHT22;395;48.132;11.608;2022-08-21T15:37:22;25.60;1.00
827;DHT22;395;48.132;11.608;2022-08-21T15:39:49;25.50;1.00
827;DHT22;395;48.132;11.608;2022-08-21T15:42:16;25.50;1.00
827;DHT22;395;48.132;11.608;2022-08-21T15:44:42;25.50;1.00
827;DHT22;395;48.132;11.608;2022-08-21T15:47:14;25.50;1.00
827;DHT22;395;48.132;11.608;2022-08-21T15:49:41;25.50;1.00
827;DHT22;395;48.132;11.608;2022-08-21T15:52:18;25.50;1.00
827;DHT22;395;48.132;11.608;2022-08-21T15:54:46;25.50;1.00
827;DHT22;395;48.132;11.608;2022-08-21T15:57:14;25.50;1.00
827;DHT22;395;48.132;11.608;2022-08-21T15:59:42;25.50;1.00
827;DHT22;395;48.132;11.608;2022-08-21T16:02:30;25.60;1.00
827;DHT22;395;48.132;11.608;2022-08-21T16:04:56;25.80;1.00
827;DHT22;395;48.132;11.608;2022-08-21T16:07:22;25.60;1.00
827;DHT22;395;48.132;11.608;2022-08-21T16:09:47;25.60;1.00
827;DHT22;395;48.132;11.608;2022-08-21T16:12:21;25.80;1.00
827;DHT22;395;48.132;11.608;2022-08-21T16:14:48;25.70;1.00
827;DHT22;395;48.132;11.608;2022-08-21T16:17:15;25.90;1.00
827;DHT22;395;48.132;11.608;2022-08-21T16:19:41;26.10;1.00
827;DHT22;395;48.132;11.608;2022-08-21T16:22:07;26.20;1.00
827;DHT22;395;48.132;11.608;2022-08-21T16:24:32;25.80;1.00
827;DHT22;395;48.132;11.608;2022-08-21T16:26:58;25.80;1.00
827;DHT22;395;48.132;11.608;2022-08-21T16:29:28;25.90;1.00
827;DHT22;395;48.132;11.608;2022-08-21T16:31:56;25.80;1.00
827;DHT22;395;48.132;11.608;2022-08-21T16:34:22;25.70;1.00
827;DHT22;395;48.132;11.608;2022-08-21T16:36:48;25.80;1.00
827;DHT22;395;48.132;11.608;2022-08-21T16:39:13;26.00;1.00
827;DHT22;395;48.132;11.608;2022-08-21T16:41:39;26.10;1.00
827;DHT22;395;48.132;11.608;2022-08-21T16:44:05;26.10;1.00
827;DHT22;395;48.132;11.608;2022-08-21T16:46:34;26.10;1.00
827;DHT22;395;48.132;11.608;2022-08-21T16:49:00;26.00;1.00
827;DHT22;395;48.132;11.608;2022-08-21T16:51:27;25.90;1.00
827;DHT22;395;48.132;11.608;2022-08-21T16:53:56;25.80;1.00
827;DHT22;395;48.132;11.608;2022-08-21T16:56:22;26.10;1.00
827;DHT22;395;48.132;11.608;2022-08-21T16:58:48;25.90;1.00
827;DHT22;395;48.132;11.608;2022-08-21T17:01:17;25.80;1.00
827;DHT22;395;48.132;11.608;2022-08-21T17:03:46;25.70;1.00
827;DHT22;395;48.132;11.608;2022-08-21T17:06:14;25.60;1.00
827;DHT22;395;48.132;11.608;2022-08-21T17:08:40;25.50;1.00
827;DHT22;395;48.132;11.608;2022-08-21T17:11:10;25.80;1.00
827;DHT22;395;48.132;11.608;2022-08-21T17:13:38;25.90;1.00
827;DHT22;395;48.132;11.608;2022-08-21T17:16:05;25.90;1.00
827;DHT22;395;48.132;11.608;2022-08-21T17:18:31;26.00;1.00
827;DHT22;395;48.132;11.608;2022-08-21T17:20:56;26.00;1.00
827;DHT22;395;48.132;11.608;2022-08-21T17:23:22;25.80;1.00
827;DHT22;395;48.132;11.608;2022-08-21T17:25:50;25.80;1.00
827;DHT22;395;48.132;11.608;2022-08-21T17:28:22;25.80;1.00
827;DHT22;395;48.132;11.608;2022-08-21T17:30:48;25.60;1.00
827;DHT22;395;48.132;11.608;2022-08-21T17:33:16;25.50;1.00
827;DHT22;395;48.132;11.608;2022-08-21T17:35:43;25.40;1.00
827;DHT22;395;48.132;11.608;2022-08-21T17:38:10;25.30;1.00
827;DHT22;395;48.132;11.608;2022-08-21T17:40:36;25.10;1.00
827;DHT22;395;48.132;11.608;2022-08-21T17:43:03;25.10;1.00
827;DHT22;395;48.132;11.608;2022-08-21T17:45:28;25.00;1.00
827;DHT22;395;48.132;11.608;2022-08-21T17:47:54;24.80;1.00
827;DHT22;395;48.132;11.608;2022-08-21T17:50:20;24.90;1.00
827;DHT22;395;48.132;11.608;2022-08-21T17:52:46;24.80;1.00
827;DHT22;395;48.132;11.608;2022-08-21T17:55:14;24.70;1.00
827;DHT22;395;48.132;11.608;2022-08-21T17:57:41;24.60;1.00
827;DHT22;395;48.132;11.608;2022-08-21T18:00:10;24.50;1.00
827;DHT22;395;48.132;11.608;2022-08-21T18:02:37;24.40;1.00
827;DHT22;395;48.132;11.608;2022-08-21T18:05:05;24.30;1.00
827;DHT22;395;48.132;11.608;2022-08-21T18:07:31;24.30;1.00
827;DHT22;395;48.132;11.608;2022-08-21T18:09:57;24.20;1.00
827;DHT22;395;48.132;11.608;2022-08-21T18:12:24;24.20;1.00
827;DHT22;395;48.132;11.608;2022-08-21T18:14:50;24.20;1.00
827;DHT22;395;48.132;11.608;2022-08-21T18:17:18;24.10;1.00
827;DHT22;395;48.132;11.608;2022-08-21T18:19:44;24.00;1.00
827;DHT22;395;48.132;11.608;2022-08-21T18:22:10;24.00;1.00
827;DHT22;395;48.132;11.608;2022-08-21T18:24:37;24.00;1.00
827;DHT22;395;48.132;11.608;2022-08-21T18:27:05;24.00;1.00
827;DHT22;395;48.132;11.608;2022-08-21T18:29:32;23.90;1.00
827;DHT22;395;48.132;11.608;2022-08-21T18:32:00;23.80;1.00
827;DHT22;395;48.132;11.608;2022-08-21T18:34:32;23.80;1.00
827;DHT22;395;48.132;11.608;2022-08-21T18:37:00;23.70;1.00
827;DHT22;395;48.132;11.608;2022-08-21T18:39:27;23.70;1.00
827;DHT22;395;48.132;11.608;2022-08-21T18:41:54;23.60;1.00
827;DHT22;395;48.132;11.608;2022-08-21T18:44:22;23.50;1.00
827;DHT22;395;48.132;11.608;2022-08-21T18:46:54;23.50;1.00
827;DHT22;395;48.132;11.608;2022-08-21T18:49:20;23.40;1.00
827;DHT22;395;48.132;11.608;2022-08-21T18:51:46;23.30;1.00
827;DHT22;395;48.132;11.608;2022-08-21T18:54:13;23.30;1.00
827;DHT22;395;48.132;11.608;2022-08-21T18:56:39;23.20;1.00
827;DHT22;395;48.132;11.608;2022-08-21T18:59:05;23.20;1.00
827;DHT22;395;48.132;11.608;2022-08-21T19:01:31;23.10;1.00
827;DHT22;395;48.132;11.608;2022-08-21T19:03:57;23.10;1.00
827;DHT22;395;48.132;11.608;2022-08-21T19:06:23;23.00;1.00
827;DHT22;395;48.132;11.608;2022-08-21T19:08:49;23.00;1.00
827;DHT22;395;48.132;11.608;2022-08-21T19:11:15;23.00;1.00
827;DHT22;395;48.132;11.608;2022-08-21T19:13:42;22.90;1.00
827;DHT22;395;48.132;11.608;2022-08-21T19:16:08;22.90;1.00
827;DHT22;395;48.132;11.608;2022-08-21T19:18:38;22.80;1.00
827;DHT22;395;48.132;11.608;2022-08-21T19:21:05;22.70;1.00
827;DHT22;395;48.132;11.608;2022-08-21T19:23:31;22.70;1.00
827;DHT22;395;48.132;11.608;2022-08-21T19:26:00;22.70;1.00
827;DHT22;395;48.132;11.608;2022-08-21T19:28:47;22.60;1.00
827;DHT22;395;48.132;11.608;2022-08-21T19:31:16;22.50;1.00
827;DHT22;395;48.132;11.608;2022-08-21T19:33:48;22.50;1.00
827;DHT22;395;48.132;11.608;2022-08-21T19:36:14;22.50;1.00
827;DHT22;395;48.132;11.608;2022-08-21T19:38:41;22.50;1.00
827;DHT22;395;48.132;11.608;2022-08-21T19:41:10;22.40;1.00
827;DHT22;395;48.132;11.608;2022-08-21T19:43:57;22.40;1.00
827;DHT22;395;48.132;11.608;2022-08-21T19:46:33;22.30;1.00
827;DHT22;395;48.132;11.608;2022-08-21T19:49:00;22.30;1.00
827;DHT22;395;48.132;11.608;2022-08-21T19:51:28;22.30;1.00
827;DHT22;395;48.132;11.608;2022-08-21T19:53:54;22.30;1.00
827;DHT22;395;48.132;11.608;2022-08-21T19:56:26;22.20;1.00
827;DHT22;395;48.132;11.608;2022-08-21T19:58:53;22.20;1.00
827;DHT22;395;48.132;11.608;2022-08-21T20:01:20;22.10;1.00
827;DHT22;395;48.132;11.608;2022-08-21T20:03:47;22.10;1.00
827;DHT22;395;48.132;11.608;2022-08-21T20:06:13;22.10;1.00
827;DHT22;395;48.132;11.608;2022-08-21T20:08:41;22.00;1.00
827;DHT22;395;48.132;11.608;2022-08-21T20:11:07;22.00;1.00
827;DHT22;395;48.132;11.608;2022-08-21T20:13:33;22.00;1.00
827;DHT22;395;48.132;11.608;2022-08-21T20:16:05;21.90;1.00
827;DHT22;395;48.132;11.608;2022-08-21T20:18:33;21.90;1.00
827;DHT22;395;48.132;11.608;2022-08-21T20:20:59;21.90;1.00
827;DHT22;395;48.132;11.608;2022-08-21T20:23:25;21.80;1.00
827;DHT22;395;48.132;11.608;2022-08-21T20:25:50;21.80;1.00
827;DHT22;395;48.132;11.608;2022-08-21T20:28:16;21.80;1.00
827;DHT22;395;48.132;11.608;2022-08-21T20:30:42;21.80;1.00
827;DHT22;395;48.132;11.608;2022-08-21T20:33:08;21.80;1.00
827;DHT22;395;48.132;11.608;2022-08-21T20:35:34;21.70;1.00
827;DHT22;395;48.132;11.608;2022-08-21T20:38:00;21.70;1.00
827;DHT22;395;48.132;11.608;2022-08-21T20:40:26;21.70;1.00
827;DHT22;395;48.132;11.608;2022-08-21T20:42:53;21.70;1.00
827;DHT22;395;48.132;11.608;2022-08-21T20:45:29;21.60;1.00
827;DHT22;395;48.132;11.608;2022-08-21T20:48:04;21.60;1.00
827;DHT22;395;48.132;11.608;2022-08-21T20:50:34;21.60;1.00
827;DHT22;395;48.132;11.608;2022-08-21T20:53:05;21.50;1.00
827;DHT22;395;48.132;11.608;2022-08-21T20:55:34;21.50;1.00
827;DHT22;395;48.132;11.608;2022-08-21T20:58:06;21.50;1.00
827;DHT22;395;48.132;11.608;2022-08-21T21:00:36;21.40;1.00
827;DHT22;395;48.132;11.608;2022-08-21T21:03:28;21.40;1.00
827;DHT22;395;48.132;11.608;2022-08-21T21:06:02;21.40;1.00
827;DHT22;395;48.132;11.608;2022-08-21T21:08:53;21.30;1.00
827;DHT22;395;48.132;11.608;2022-08-21T21:11:25;21.30;1.00
827;DHT22;395;48.132;11.608;2022-08-21T21:13:55;21.30;1.00
827;DHT22;395;48.132;11.608;2022-08-21T21:19:25;21.20;1.00
827;DHT22;395;48.132;11.608;2022-08-21T21:22:06;21.20;1.00
827;DHT22;395;48.132;11.608;2022-08-21T21:24:48;21.20;1.00
827;DHT22;395;48.132;11.608;2022-08-21T21:27:20;21.10;1.00
827;DHT22;395;48.132;11.608;2022-08-21T21:29:53;21.10;1.10
827;DHT22;395;48.132;11.608;2022-08-21T21:32:21;21.10;1.00
827;DHT22;395;48.132;11.608;2022-08-21T21:34:47;21.10;1.30
827;DHT22;395;48.132;11.608;2022-08-21T21:45:27;21.00;1.20
827;DHT22;395;48.132;11.608;2022-08-21T21:59:02;20.80;1.60
827;DHT22;395;48.132;11.608;2022-08-21T22:01:50;20.70;1.80
827;DHT22;395;48.132;11.608;2022-08-21T22:07:08;20.70;2.40
827;DHT22;395;48.132;11.608;2022-08-21T22:12:44;20.70;3.20
827;DHT22;395;48.132;11.608;2022-08-21T22:15:11;20.70;3.20
827;DHT22;395;48.132;11.608;2022-08-21T22:17:51;20.70;3.20
827;DHT22;395;48.132;11.608;2022-08-21T22:20:32;20.60;3.20
827;DHT22;395;48.132;11.608;2022-08-21T22:23:02;20.60;3.10
827;DHT22;395;48.132;11.608;2022-08-21T22:25:33;20.60;3.10
827;DHT22;395;48.132;11.608;2022-08-21T22:28:16;20.50;3.70
827;DHT22;395;48.132;11.608;2022-08-21T22:30:43;20.50;3.90
827;DHT22;395;48.132;11.608;2022-08-21T22:33:13;20.50;3.90
827;DHT22;395;48.132;11.608;2022-08-21T22:35:40;20.50;3.60
827;DHT22;395;48.132;11.608;2022-08-21T22:38:29;20.50;4.00
827;DHT22;395;48.132;11.608;2022-08-21T22:44:17;20.40;4.40
827;DHT22;395;48.132;11.608;2022-08-21T22:46:52;20.40;3.90
827;DHT22;395;48.132;11.608;2022-08-21T22:49:40;20.40;4.30
827;DHT22;395;48.132;11.608;2022-08-21T22:54:36;20.40;4.10
827;DHT22;395;48.132;11.608;2022-08-21T22:57:06;20.30;4.00
827;DHT22;395;48.132;11.608;2022-08-21T22:59:35;20.30;4.40
827;DHT22;395;48.132;11.608;2022-08-21T23:04:51;20.30;4.80
827;DHT22;395;48.132;11.608;2022-08-21T23:10:06;20.20;4.80
827;DHT22;395;48.132;11.608;2022-08-21T23:12:37;20.20;5.10
827;DHT22;395;48.132;11.608;2022-08-21T23:15:09;20.20;5.10
827;DHT22;395;48.132;11.608;2022-08-21T23:17:58;20.20;4.80
827;DHT22;395;48.132;11.608;2022-08-21T23:20:39;20.10;4.60
827;DHT22;395;48.132;11.608;2022-08-21T23:23:18;20.10;5.00
827;DHT22;395;48.132;11.608;2022-08-21T23:26:40;20.10;5.20
827;DHT22;395;48.132;11.608;2022-08-21T23:32:03;20.00;5.30
827;DHT22;395;48.132;11.608;2022-08-21T23:34:44;19.90;6.30
827;DHT22;395;48.132;11.608;2022-08-21T23:40:39;19.90;7.00
827;DHT22;395;48.132;11.608;2022-08-21T23:43:28;19.90;7.20
827;DHT22;395;48.132;11.608;2022-08-21T23:51:16;19.80;7.50
